sensor_id;sensor_type;location;lat;lon;timestamp;P1;durP1;ratioP1;P2;durP2;ratioP2
43620;SDS011;29213;50.770;7.298;2022-12-18T00:01:02;40.13;;;19.67;;
43620;SDS011;29213;50.770;7.298;2022-12-18T00:03:34;36.47;;;18.63;;
43620;SDS011;29213;50.770;7.298;2022-12-18T00:06:00;38.93;;;19.83;;
43620;SDS011;29213;50.770;7.298;2022-12-18T00:08:26;35.37;;;19.20;;
43620;SDS011;29213;50.770;7.298;2022-12-18T00:10:52;37.77;;;19.27;;
43620;SDS011;29213;50.770;7.298;2022-12-18T00:13:17;38.17;;;19.57;;
43620;SDS011;29213;50.770;7.298;2022-12-18T00:15:42;36.43;;;19.37;;
43620;SDS011;29213;50.770;7.298;2022-12-18T00:18:08;40.57;;;18.37;;
43620;SDS011;29213;50.770;7.298;2022-12-18T00:20:37;39.10;;;19.70;;
43620;SDS011;29213;50.770;7.298;2022-12-18T00:23:04;33.58;;;18.05;;
43620;SDS011;29213;50.770;7.298;2022-12-18T00:25:32;35.50;;;18.37;;
43620;SDS011;29213;50.770;7.298;2022-12-18T00:27:59;35.67;;;17.63;;
43620;SDS011;29213;50.770;7.298;2022-12-18T00:30:25;34.63;;;17.43;;
43620;SDS011;29213;50.770;7.298;2022-12-18T00:32:50;36.63;;;16.93;;
43620;SDS011;29213;50.770;7.298;2022-12-18T00:35:15;37.70;;;18.53;;
43620;SDS011;29213;50.770;7.298;2022-12-18T00:37:41;36.97;;;18.33;;
43620;SDS011;29213;50.770;7.298;2022-12-18T00:40:07;40.23;;;19.77;;
43620;SDS011;29213;50.770;7.298;2022-12-18T00:42:32;43.10;;;19.23;;
43620;SDS011;29213;50.770;7.298;2022-12-18T00:45:19;44.20;;;19.77;;
43620;SDS011;29213;50.770;7.298;2022-12-18T00:47:44;44.83;;;20.30;;
43620;SDS011;29213;50.770;7.298;2022-12-18T00:50:10;45.23;;;19.70;;
43620;SDS011;29213;50.770;7.298;2022-12-18T00:52:35;49.23;;;22.90;;
43620;SDS011;29213;50.770;7.298;2022-12-18T00:55:01;48.23;;;21.27;;
43620;SDS011;29213;50.770;7.298;2022-12-18T00:57:26;47.93;;;22.40;;
43620;SDS011;29213;50.770;7.298;2022-12-18T00:59:51;47.87;;;23.00;;
43620;SDS011;29213;50.770;7.298;2022-12-18T01:02:17;42.33;;;20.00;;
43620;SDS011;29213;50.770;7.298;2022-12-18T01:04:42;43.27;;;19.63;;
43620;SDS011;29213;50.770;7.298;2022-12-18T01:07:08;44.50;;;21.13;;
43620;SDS011;29213;50.770;7.298;2022-12-18T01:09:33;34.80;;;18.20;;
43620;SDS011;29213;50.770;7.298;2022-12-18T01:11:59;32.43;;;17.27;;
43620;SDS011;29213;50.770;7.298;2022-12-18T01:14:25;34.37;;;17.80;;
43620;SDS011;29213;50.770;7.298;2022-12-18T01:16:50;33.00;;;15.70;;
43620;SDS011;29213;50.770;7.298;2022-12-18T01:19:15;31.53;;;16.80;;
43620;SDS011;29213;50.770;7.298;2022-12-18T01:21:41;28.97;;;15.63;;
43620;SDS011;29213;50.770;7.298;2022-12-18T01:24:06;27.97;;;15.10;;
43620;SDS011;29213;50.770;7.298;2022-12-18T01:26:32;27.67;;;14.83;;
43620;SDS011;29213;50.770;7.298;2022-12-18T01:28:57;28.23;;;15.73;;
43620;SDS011;29213;50.770;7.298;2022-12-18T01:31:27;28.10;;;15.07;;
43620;SDS011;29213;50.770;7.298;2022-12-18T01:33:54;31.70;;;15.57;;
43620;SDS011;29213;50.770;7.298;2022-12-18T01:36:25;29.00;;;15.30;;
43620;SDS011;29213;50.770;7.298;2022-12-18T01:38:52;31.70;;;15.03;;
43620;SDS011;29213;50.770;7.298;2022-12-18T01:41:19;29.97;;;14.93;;
43620;SDS011;29213;50.770;7.298;2022-12-18T01:43:53;33.00;;;15.90;;
43620;SDS011;29213;50.770;7.298;2022-12-18T01:46:22;29.47;;;15.67;;
43620;SDS011;29213;50.770;7.298;2022-12-18T01:48:49;31.57;;;14.87;;
43620;SDS011;29213;50.770;7.298;2022-12-18T01:51:27;29.00;;;14.93;;
43620;SDS011;29213;50.770;7.298;2022-12-18T01:53:53;29.00;;;14.87;;
43620;SDS011;29213;50.770;7.298;2022-12-18T01:56:19;28.53;;;14.83;;
43620;SDS011;29213;50.770;7.298;2022-12-18T01:58:48;30.83;;;15.43;;
43620;SDS011;29213;50.770;7.298;2022-12-18T02:01:19;24.87;;;13.13;;
43620;SDS011;29213;50.770;7.298;2022-12-18T02:03:47;26.03;;;13.90;;
43620;SDS011;29213;50.770;7.298;2022-12-18T02:06:15;24.73;;;13.53;;
43620;SDS011;29213;50.770;7.298;2022-12-18T02:08:50;23.43;;;13.00;;
43620;SDS011;29213;50.770;7.298;2022-12-18T02:11:39;25.50;;;13.13;;
43620;SDS011;29213;50.770;7.298;2022-12-18T02:17:04;24.33;;;13.20;;
43620;SDS011;29213;50.770;7.298;2022-12-18T02:22:21;23.43;;;13.37;;
43620;SDS011;29213;50.770;7.298;2022-12-18T02:25:20;26.77;;;13.00;;
43620;SDS011;29213;50.770;7.298;2022-12-18T02:28:06;25.10;;;13.30;;
43620;SDS011;29213;50.770;7.298;2022-12-18T02:30:36;21.92;;;13.30;;
43620;SDS011;29213;50.770;7.298;2022-12-18T02:33:04;23.27;;;12.40;;
43620;SDS011;29213;50.770;7.298;2022-12-18T02:35:35;23.90;;;13.43;;
43620;SDS011;29213;50.770;7.298;2022-12-18T02:38:03;24.97;;;13.97;;
43620;SDS011;29213;50.770;7.298;2022-12-18T02:40:29;26.67;;;13.27;;
43620;SDS011;29213;50.770;7.298;2022-12-18T02:42:55;23.67;;;13.20;;
43620;SDS011;29213;50.770;7.298;2022-12-18T02:45:28;25.57;;;13.47;;
43620;SDS011;29213;50.770;7.298;2022-12-18T02:47:53;23.07;;;13.37;;
43620;SDS011;29213;50.770;7.298;2022-12-18T02:53:24;27.07;;;13.50;;
43620;SDS011;29213;50.770;7.298;2022-12-18T02:56:02;27.80;;;13.17;;
43620;SDS011;29213;50.770;7.298;2022-12-18T03:04:26;23.60;;;13.40;;
43620;SDS011;29213;50.770;7.298;2022-12-18T03:06:59;27.90;;;13.70;;
43620;SDS011;29213;50.770;7.298;2022-12-18T03:09:29;24.00;;;14.20;;
43620;SDS011;29213;50.770;7.298;2022-12-18T03:12:02;29.10;;;15.57;;
43620;SDS011;29213;50.770;7.298;2022-12-18T03:14:52;27.20;;;14.53;;
43620;SDS011;29213;50.770;7.298;2022-12-18T03:17:24;29.33;;;15.27;;
43620;SDS011;29213;50.770;7.298;2022-12-18T03:19:52;26.33;;;13.93;;
43620;SDS011;29213;50.770;7.298;2022-12-18T03:22:22;25.67;;;14.23;;
43620;SDS011;29213;50.770;7.298;2022-12-18T03:24:49;25.40;;;13.27;;
43620;SDS011;29213;50.770;7.298;2022-12-18T03:27:18;25.30;;;14.33;;
43620;SDS011;29213;50.770;7.298;2022-12-18T03:29:55;27.35;;;14.38;;
43620;SDS011;29213;50.770;7.298;2022-12-18T03:32:42;23.95;;;13.13;;
43620;SDS011;29213;50.770;7.298;2022-12-18T03:35:13;21.00;;;12.90;;
43620;SDS011;29213;50.770;7.298;2022-12-18T03:37:46;24.43;;;13.20;;
43620;SDS011;29213;50.770;7.298;2022-12-18T03:40:11;22.97;;;13.30;;
43620;SDS011;29213;50.770;7.298;2022-12-18T03:42:39;23.80;;;12.73;;
43620;SDS011;29213;50.770;7.298;2022-12-18T03:45:23;23.47;;;12.30;;
43620;SDS011;29213;50.770;7.298;2022-12-18T03:47:58;20.60;;;12.70;;
43620;SDS011;29213;50.770;7.298;2022-12-18T03:55:50;22.80;;;13.23;;
43620;SDS011;29213;50.770;7.298;2022-12-18T03:58:17;24.03;;;13.43;;
43620;SDS011;29213;50.770;7.298;2022-12-18T04:00:48;26.43;;;14.77;;
43620;SDS011;29213;50.770;7.298;2022-12-18T04:03:16;25.53;;;13.33;;
43620;SDS011;29213;50.770;7.298;2022-12-18T04:05:44;28.63;;;14.67;;
43620;SDS011;29213;50.770;7.298;2022-12-18T04:08:13;25.93;;;12.80;;
43620;SDS011;29213;50.770;7.298;2022-12-18T04:10:38;25.03;;;13.93;;
43620;SDS011;29213;50.770;7.298;2022-12-18T04:13:04;27.40;;;14.50;;
43620;SDS011;29213;50.770;7.298;2022-12-18T04:15:29;34.80;;;15.53;;
43620;SDS011;29213;50.770;7.298;2022-12-18T04:17:59;29.23;;;15.50;;
43620;SDS011;29213;50.770;7.298;2022-12-18T04:20:24;27.30;;;14.10;;
43620;SDS011;29213;50.770;7.298;2022-12-18T04:22:50;22.83;;;13.00;;
43620;SDS011;29213;50.770;7.298;2022-12-18T04:25:15;27.20;;;13.30;;
43620;SDS011;29213;50.770;7.298;2022-12-18T04:27:41;25.60;;;13.93;;
43620;SDS011;29213;50.770;7.298;2022-12-18T04:30:06;24.07;;;12.90;;
43620;SDS011;29213;50.770;7.298;2022-12-18T04:32:33;22.97;;;12.80;;
43620;SDS011;29213;50.770;7.298;2022-12-18T04:34:59;23.93;;;13.60;;
43620;SDS011;29213;50.770;7.298;2022-12-18T04:37:24;24.97;;;13.27;;
43620;SDS011;29213;50.770;7.298;2022-12-18T04:39:50;22.23;;;12.80;;
43620;SDS011;29213;50.770;7.298;2022-12-18T04:42:15;24.67;;;13.23;;
43620;SDS011;29213;50.770;7.298;2022-12-18T04:44:41;27.07;;;12.67;;
43620;SDS011;29213;50.770;7.298;2022-12-18T04:47:06;24.60;;;12.60;;
43620;SDS011;29213;50.770;7.298;2022-12-18T04:49:32;21.03;;;12.07;;
43620;SDS011;29213;50.770;7.298;2022-12-18T04:51:58;23.50;;;13.00;;
43620;SDS011;29213;50.770;7.298;2022-12-18T04:54:23;21.90;;;12.47;;
43620;SDS011;29213;50.770;7.298;2022-12-18T04:56:49;22.37;;;12.37;;
43620;SDS011;29213;50.770;7.298;2022-12-18T04:59:14;23.07;;;12.30;;
43620;SDS011;29213;50.770;7.298;2022-12-18T05:01:39;24.30;;;12.50;;
43620;SDS011;29213;50.770;7.298;2022-12-18T05:04:05;22.73;;;12.57;;
43620;SDS011;29213;50.770;7.298;2022-12-18T05:06:30;22.53;;;12.47;;
43620;SDS011;29213;50.770;7.298;2022-12-18T05:08:56;22.60;;;12.00;;
43620;SDS011;29213;50.770;7.298;2022-12-18T05:11:21;24.20;;;13.40;;
43620;SDS011;29213;50.770;7.298;2022-12-18T05:13:47;24.30;;;13.43;;
43620;SDS011;29213;50.770;7.298;2022-12-18T05:16:12;24.80;;;13.60;;
43620;SDS011;29213;50.770;7.298;2022-12-18T05:18:39;24.03;;;13.73;;
43620;SDS011;29213;50.770;7.298;2022-12-18T05:21:04;24.87;;;13.83;;
43620;SDS011;29213;50.770;7.298;2022-12-18T05:23:30;25.17;;;14.13;;
43620;SDS011;29213;50.770;7.298;2022-12-18T05:25:56;27.27;;;13.87;;
43620;SDS011;29213;50.770;7.298;2022-12-18T05:28:24;22.03;;;13.03;;
43620;SDS011;29213;50.770;7.298;2022-12-18T05:30:52;25.93;;;13.73;;
43620;SDS011;29213;50.770;7.298;2022-12-18T05:33:19;27.27;;;13.50;;
43620;SDS011;29213;50.770;7.298;2022-12-18T05:35:49;26.03;;;13.40;;
43620;SDS011;29213;50.770;7.298;2022-12-18T05:38:18;22.23;;;12.47;;
43620;SDS011;29213;50.770;7.298;2022-12-18T05:40:44;20.43;;;11.97;;
43620;SDS011;29213;50.770;7.298;2022-12-18T05:43:10;21.07;;;13.03;;
43620;SDS011;29213;50.770;7.298;2022-12-18T05:45:38;22.23;;;11.90;;
43620;SDS011;29213;50.770;7.298;2022-12-18T05:48:05;22.73;;;12.10;;
43620;SDS011;29213;50.770;7.298;2022-12-18T05:50:33;21.30;;;11.50;;
43620;SDS011;29213;50.770;7.298;2022-12-18T05:52:59;23.23;;;12.37;;
43620;SDS011;29213;50.770;7.298;2022-12-18T05:55:25;22.97;;;12.67;;
43620;SDS011;29213;50.770;7.298;2022-12-18T05:57:51;20.57;;;11.50;;
43620;SDS011;29213;50.770;7.298;2022-12-18T06:00:16;21.13;;;12.10;;
43620;SDS011;29213;50.770;7.298;2022-12-18T06:02:42;21.63;;;11.87;;
43620;SDS011;29213;50.770;7.298;2022-12-18T06:05:11;23.07;;;12.17;;
43620;SDS011;29213;50.770;7.298;2022-12-18T06:07:36;18.77;;;10.97;;
43620;SDS011;29213;50.770;7.298;2022-12-18T06:10:02;20.77;;;11.87;;
43620;SDS011;29213;50.770;7.298;2022-12-18T06:12:27;19.37;;;11.57;;
43620;SDS011;29213;50.770;7.298;2022-12-18T06:14:53;23.57;;;12.37;;
43620;SDS011;29213;50.770;7.298;2022-12-18T06:17:18;20.30;;;11.70;;
43620;SDS011;29213;50.770;7.298;2022-12-18T06:19:43;22.63;;;12.50;;
43620;SDS011;29213;50.770;7.298;2022-12-18T06:22:09;20.67;;;12.33;;
43620;SDS011;29213;50.770;7.298;2022-12-18T06:24:34;21.97;;;12.00;;
43620;SDS011;29213;50.770;7.298;2022-12-18T06:26:59;21.27;;;12.20;;
43620;SDS011;29213;50.770;7.298;2022-12-18T06:29:25;22.30;;;12.20;;
43620;SDS011;29213;50.770;7.298;2022-12-18T06:31:50;22.40;;;12.30;;
43620;SDS011;29213;50.770;7.298;2022-12-18T06:34:16;23.73;;;12.90;;
43620;SDS011;29213;50.770;7.298;2022-12-18T06:36:42;21.67;;;13.70;;
43620;SDS011;29213;50.770;7.298;2022-12-18T06:39:07;23.53;;;13.40;;
43620;SDS011;29213;50.770;7.298;2022-12-18T06:41:32;23.37;;;13.70;;
43620;SDS011;29213;50.770;7.298;2022-12-18T06:43:58;24.50;;;14.13;;
43620;SDS011;29213;50.770;7.298;2022-12-18T06:46:23;24.57;;;13.70;;
43620;SDS011;29213;50.770;7.298;2022-12-18T06:48:49;22.20;;;13.00;;
43620;SDS011;29213;50.770;7.298;2022-12-18T06:51:16;22.63;;;12.93;;
43620;SDS011;29213;50.770;7.298;2022-12-18T06:53:43;21.37;;;12.40;;
43620;SDS011;29213;50.770;7.298;2022-12-18T06:56:08;23.97;;;12.10;;
43620;SDS011;29213;50.770;7.298;2022-12-18T06:58:34;23.93;;;12.33;;
43620;SDS011;29213;50.770;7.298;2022-12-18T07:01:03;20.90;;;12.80;;
43620;SDS011;29213;50.770;7.298;2022-12-18T07:03:29;21.08;;;11.82;;
43620;SDS011;29213;50.770;7.298;2022-12-18T07:05:55;22.73;;;13.10;;
43620;SDS011;29213;50.770;7.298;2022-12-18T07:08:21;19.50;;;11.50;;
43620;SDS011;29213;50.770;7.298;2022-12-18T07:10:46;23.07;;;12.60;;
43620;SDS011;29213;50.770;7.298;2022-12-18T07:13:14;22.87;;;12.80;;
43620;SDS011;29213;50.770;7.298;2022-12-18T07:15:40;23.17;;;12.83;;
43620;SDS011;29213;50.770;7.298;2022-12-18T07:18:06;23.10;;;12.67;;
43620;SDS011;29213;50.770;7.298;2022-12-18T07:20:31;25.70;;;13.33;;
43620;SDS011;29213;50.770;7.298;2022-12-18T07:22:56;26.07;;;14.10;;
43620;SDS011;29213;50.770;7.298;2022-12-18T07:25:22;26.30;;;13.93;;
43620;SDS011;29213;50.770;7.298;2022-12-18T07:27:48;27.17;;;13.90;;
43620;SDS011;29213;50.770;7.298;2022-12-18T07:30:13;22.83;;;12.83;;
43620;SDS011;29213;50.770;7.298;2022-12-18T07:32:39;21.17;;;12.43;;
43620;SDS011;29213;50.770;7.298;2022-12-18T07:35:05;23.80;;;13.00;;
43620;SDS011;29213;50.770;7.298;2022-12-18T07:37:30;23.43;;;12.87;;
43620;SDS011;29213;50.770;7.298;2022-12-18T07:39:56;21.93;;;12.77;;
43620;SDS011;29213;50.770;7.298;2022-12-18T07:42:21;24.33;;;13.33;;
43620;SDS011;29213;50.770;7.298;2022-12-18T07:44:55;24.23;;;13.10;;
43620;SDS011;29213;50.770;7.298;2022-12-18T07:47:21;21.00;;;13.10;;
43620;SDS011;29213;50.770;7.298;2022-12-18T07:49:46;23.50;;;13.33;;
43620;SDS011;29213;50.770;7.298;2022-12-18T07:52:12;22.20;;;13.27;;
43620;SDS011;29213;50.770;7.298;2022-12-18T07:54:37;23.97;;;13.17;;
43620;SDS011;29213;50.770;7.298;2022-12-18T07:57:03;28.77;;;16.13;;
43620;SDS011;29213;50.770;7.298;2022-12-18T07:59:29;25.50;;;13.97;;
43620;SDS011;29213;50.770;7.298;2022-12-18T08:01:54;22.87;;;13.20;;
43620;SDS011;29213;50.770;7.298;2022-12-18T08:04:20;26.80;;;14.27;;
43620;SDS011;29213;50.770;7.298;2022-12-18T08:06:45;28.50;;;15.10;;
43620;SDS011;29213;50.770;7.298;2022-12-18T08:09:11;25.83;;;14.50;;
43620;SDS011;29213;50.770;7.298;2022-12-18T08:11:36;27.43;;;14.10;;
43620;SDS011;29213;50.770;7.298;2022-12-18T08:14:02;25.43;;;14.07;;
43620;SDS011;29213;50.770;7.298;2022-12-18T08:16:27;24.60;;;13.57;;
43620;SDS011;29213;50.770;7.298;2022-12-18T08:18:53;24.77;;;12.97;;
43620;SDS011;29213;50.770;7.298;2022-12-18T08:21:19;21.50;;;13.20;;
43620;SDS011;29213;50.770;7.298;2022-12-18T08:23:48;23.83;;;13.80;;
43620;SDS011;29213;50.770;7.298;2022-12-18T08:26:15;23.77;;;13.43;;
43620;SDS011;29213;50.770;7.298;2022-12-18T08:28:41;22.70;;;13.03;;
43620;SDS011;29213;50.770;7.298;2022-12-18T08:31:06;25.23;;;14.47;;
43620;SDS011;29213;50.770;7.298;2022-12-18T08:33:32;21.33;;;12.57;;
43620;SDS011;29213;50.770;7.298;2022-12-18T08:35:58;21.77;;;12.67;;
43620;SDS011;29213;50.770;7.298;2022-12-18T08:38:24;24.23;;;12.80;;
43620;SDS011;29213;50.770;7.298;2022-12-18T08:40:57;22.30;;;12.67;;
43620;SDS011;29213;50.770;7.298;2022-12-18T08:43:24;23.90;;;13.23;;
43620;SDS011;29213;50.770;7.298;2022-12-18T08:46:08;22.10;;;12.00;;
43620;SDS011;29213;50.770;7.298;2022-12-18T08:48:33;23.83;;;12.10;;
43620;SDS011;29213;50.770;7.298;2022-12-18T08:50:59;22.50;;;12.37;;
43620;SDS011;29213;50.770;7.298;2022-12-18T08:53:26;22.77;;;12.37;;
43620;SDS011;29213;50.770;7.298;2022-12-18T08:55:52;24.60;;;12.63;;
43620;SDS011;29213;50.770;7.298;2022-12-18T08:58:17;20.40;;;12.40;;
43620;SDS011;29213;50.770;7.298;2022-12-18T09:00:43;22.03;;;13.03;;
43620;SDS011;29213;50.770;7.298;2022-12-18T09:03:15;22.33;;;13.00;;
43620;SDS011;29213;50.770;7.298;2022-12-18T09:05:42;24.00;;;13.80;;
43620;SDS011;29213;50.770;7.298;2022-12-18T09:08:08;23.80;;;13.83;;
43620;SDS011;29213;50.770;7.298;2022-12-18T09:10:34;23.33;;;13.43;;
43620;SDS011;29213;50.770;7.298;2022-12-18T09:13:06;22.17;;;13.30;;
43620;SDS011;29213;50.770;7.298;2022-12-18T09:15:31;25.50;;;13.73;;
43620;SDS011;29213;50.770;7.298;2022-12-18T09:17:56;24.03;;;12.67;;
43620;SDS011;29213;50.770;7.298;2022-12-18T09:20:22;25.47;;;14.73;;
43620;SDS011;29213;50.770;7.298;2022-12-18T09:22:47;24.97;;;13.60;;
43620;SDS011;29213;50.770;7.298;2022-12-18T09:25:13;25.63;;;14.10;;
43620;SDS011;29213;50.770;7.298;2022-12-18T09:27:38;23.97;;;13.93;;
43620;SDS011;29213;50.770;7.298;2022-12-18T09:30:04;23.47;;;13.00;;
43620;SDS011;29213;50.770;7.298;2022-12-18T09:32:30;21.57;;;13.23;;
43620;SDS011;29213;50.770;7.298;2022-12-18T09:34:55;26.13;;;13.67;;
43620;SDS011;29213;50.770;7.298;2022-12-18T09:37:21;26.27;;;15.23;;
43620;SDS011;29213;50.770;7.298;2022-12-18T09:39:46;25.67;;;14.88;;
43620;SDS011;29213;50.770;7.298;2022-12-18T09:42:13;26.93;;;15.43;;
43620;SDS011;29213;50.770;7.298;2022-12-18T09:44:50;23.77;;;14.85;;
43620;SDS011;29213;50.770;7.298;2022-12-18T09:47:19;23.90;;;14.25;;
43620;SDS011;29213;50.770;7.298;2022-12-18T09:49:59;24.97;;;14.37;;
43620;SDS011;29213;50.770;7.298;2022-12-18T09:52:41;23.85;;;14.30;;
43620;SDS011;29213;50.770;7.298;2022-12-18T09:55:21;23.92;;;13.45;;
43620;SDS011;29213;50.770;7.298;2022-12-18T09:57:53;23.77;;;13.20;;
43620;SDS011;29213;50.770;7.298;2022-12-18T10:00:23;22.88;;;13.82;;
43620;SDS011;29213;50.770;7.298;2022-12-18T10:02:51;23.17;;;13.55;;
43620;SDS011;29213;50.770;7.298;2022-12-18T10:05:24;27.13;;;14.32;;
43620;SDS011;29213;50.770;7.298;2022-12-18T10:08:17;24.40;;;13.40;;
43620;SDS011;29213;50.770;7.298;2022-12-18T10:10:51;23.45;;;14.30;;
43620;SDS011;29213;50.770;7.298;2022-12-18T10:21:51;24.35;;;13.18;;
43620;SDS011;29213;50.770;7.298;2022-12-18T10:24:24;23.23;;;13.18;;
43620;SDS011;29213;50.770;7.298;2022-12-18T10:27:00;19.42;;;11.82;;
43620;SDS011;29213;50.770;7.298;2022-12-18T10:29:36;23.17;;;12.60;;
43620;SDS011;29213;50.770;7.298;2022-12-18T10:32:02;22.77;;;13.23;;
43620;SDS011;29213;50.770;7.298;2022-12-18T10:34:28;24.67;;;13.68;;
43620;SDS011;29213;50.770;7.298;2022-12-18T10:36:53;22.70;;;13.45;;
43620;SDS011;29213;50.770;7.298;2022-12-18T10:39:21;24.38;;;13.32;;
43620;SDS011;29213;50.770;7.298;2022-12-18T10:41:48;22.52;;;12.60;;
43620;SDS011;29213;50.770;7.298;2022-12-18T10:44:22;22.42;;;12.80;;
43620;SDS011;29213;50.770;7.298;2022-12-18T10:46:55;22.52;;;13.10;;
43620;SDS011;29213;50.770;7.298;2022-12-18T10:49:32;24.67;;;13.52;;
43620;SDS011;29213;50.770;7.298;2022-12-18T10:52:17;24.02;;;13.77;;
43620;SDS011;29213;50.770;7.298;2022-12-18T10:54:58;22.23;;;12.93;;
43620;SDS011;29213;50.770;7.298;2022-12-18T10:57:39;23.65;;;13.85;;
43620;SDS011;29213;50.770;7.298;2022-12-18T11:00:20;24.52;;;13.82;;
43620;SDS011;29213;50.770;7.298;2022-12-18T11:02:54;23.45;;;13.45;;
43620;SDS011;29213;50.770;7.298;2022-12-18T11:05:25;22.92;;;13.05;;
43620;SDS011;29213;50.770;7.298;2022-12-18T11:08:01;25.52;;;13.50;;
43620;SDS011;29213;50.770;7.298;2022-12-18T11:13:11;23.50;;;14.20;;
43620;SDS011;29213;50.770;7.298;2022-12-18T11:15:47;27.30;;;14.50;;
43620;SDS011;29213;50.770;7.298;2022-12-18T11:18:16;25.63;;;14.38;;
43620;SDS011;29213;50.770;7.298;2022-12-18T11:20:52;28.35;;;15.32;;
43620;SDS011;29213;50.770;7.298;2022-12-18T11:23:25;24.65;;;14.20;;
43620;SDS011;29213;50.770;7.298;2022-12-18T11:25:56;23.05;;;14.23;;
43620;SDS011;29213;50.770;7.298;2022-12-18T11:28:28;24.88;;;15.07;;
43620;SDS011;29213;50.770;7.298;2022-12-18T11:33:46;25.20;;;14.07;;
43620;SDS011;29213;50.770;7.298;2022-12-18T11:36:15;25.45;;;15.00;;
43620;SDS011;29213;50.770;7.298;2022-12-18T11:38:42;24.40;;;14.50;;
43620;SDS011;29213;50.770;7.298;2022-12-18T11:41:30;24.95;;;13.82;;
43620;SDS011;29213;50.770;7.298;2022-12-18T11:44:28;25.58;;;14.95;;
43620;SDS011;29213;50.770;7.298;2022-12-18T11:47:03;26.17;;;15.45;;
43620;SDS011;29213;50.770;7.298;2022-12-18T11:50:02;23.25;;;14.07;;
43620;SDS011;29213;50.770;7.298;2022-12-18T11:52:39;26.92;;;15.13;;
43620;SDS011;29213;50.770;7.298;2022-12-18T11:55:22;24.90;;;15.20;;
43620;SDS011;29213;50.770;7.298;2022-12-18T12:01:35;25.45;;;15.13;;
43620;SDS011;29213;50.770;7.298;2022-12-18T12:07:03;28.75;;;16.10;;
43620;SDS011;29213;50.770;7.298;2022-12-18T12:09:39;30.00;;;15.80;;
43620;SDS011;29213;50.770;7.298;2022-12-18T12:17:22;27.73;;;16.88;;
43620;SDS011;29213;50.770;7.298;2022-12-18T12:19:53;30.45;;;16.33;;
43620;SDS011;29213;50.770;7.298;2022-12-18T12:25:11;26.52;;;15.43;;
43620;SDS011;29213;50.770;7.298;2022-12-18T12:38:57;27.27;;;16.30;;
43620;SDS011;29213;50.770;7.298;2022-12-18T12:41:31;24.98;;;16.20;;
43620;SDS011;29213;50.770;7.298;2022-12-18T12:44:31;31.67;;;18.15;;
43620;SDS011;29213;50.770;7.298;2022-12-18T12:47:11;28.92;;;16.88;;
43620;SDS011;29213;50.770;7.298;2022-12-18T12:49:44;29.83;;;17.10;;
43620;SDS011;29213;50.770;7.298;2022-12-18T12:52:32;32.60;;;17.70;;
43620;SDS011;29213;50.770;7.298;2022-12-18T12:55:02;35.03;;;18.30;;
43620;SDS011;29213;50.770;7.298;2022-12-18T12:57:34;29.88;;;17.00;;
43620;SDS011;29213;50.770;7.298;2022-12-18T13:00:18;32.20;;;17.83;;
43620;SDS011;29213;50.770;7.298;2022-12-18T13:05:54;36.05;;;19.23;;
43620;SDS011;29213;50.770;7.298;2022-12-18T13:08:27;35.17;;;18.52;;
43620;SDS011;29213;50.770;7.298;2022-12-18T13:10:58;29.55;;;17.25;;
43620;SDS011;29213;50.770;7.298;2022-12-18T13:13:50;32.70;;;17.48;;
43620;SDS011;29213;50.770;7.298;2022-12-18T13:16:22;36.00;;;18.23;;
43620;SDS011;29213;50.770;7.298;2022-12-18T13:18:49;30.17;;;17.30;;
43620;SDS011;29213;50.770;7.298;2022-12-18T13:21:35;31.42;;;17.75;;
43620;SDS011;29213;50.770;7.298;2022-12-18T13:24:21;29.70;;;17.52;;
43620;SDS011;29213;50.770;7.298;2022-12-18T13:26:52;30.33;;;17.73;;
43620;SDS011;29213;50.770;7.298;2022-12-18T13:32:17;30.17;;;17.77;;
43620;SDS011;29213;50.770;7.298;2022-12-18T13:34:45;33.88;;;19.27;;
43620;SDS011;29213;50.770;7.298;2022-12-18T13:40:20;31.38;;;18.50;;
43620;SDS011;29213;50.770;7.298;2022-12-18T13:48:28;32.95;;;19.23;;
43620;SDS011;29213;50.770;7.298;2022-12-18T13:53:39;32.58;;;19.00;;
43620;SDS011;29213;50.770;7.298;2022-12-18T13:56:09;35.47;;;20.85;;
43620;SDS011;29213;50.770;7.298;2022-12-18T13:58:41;33.45;;;19.85;;
43620;SDS011;29213;50.770;7.298;2022-12-18T14:01:15;36.47;;;20.33;;
43620;SDS011;29213;50.770;7.298;2022-12-18T14:03:48;35.00;;;19.67;;
43620;SDS011;29213;50.770;7.298;2022-12-18T14:06:13;34.38;;;19.88;;
43620;SDS011;29213;50.770;7.298;2022-12-18T14:08:40;35.97;;;21.08;;
43620;SDS011;29213;50.770;7.298;2022-12-18T14:11:17;33.40;;;20.33;;
43620;SDS011;29213;50.770;7.298;2022-12-18T14:13:47;32.90;;;20.33;;
43620;SDS011;29213;50.770;7.298;2022-12-18T14:16:14;36.80;;;21.10;;
43620;SDS011;29213;50.770;7.298;2022-12-18T14:18:45;37.78;;;20.98;;
43620;SDS011;29213;50.770;7.298;2022-12-18T14:21:31;36.08;;;20.33;;
43620;SDS011;29213;50.770;7.298;2022-12-18T14:24:19;38.53;;;21.20;;
43620;SDS011;29213;50.770;7.298;2022-12-18T14:26:47;34.33;;;20.38;;
43620;SDS011;29213;50.770;7.298;2022-12-18T14:29:24;32.85;;;19.40;;
43620;SDS011;29213;50.770;7.298;2022-12-18T14:32:07;35.20;;;20.15;;
43620;SDS011;29213;50.770;7.298;2022-12-18T14:34:43;37.53;;;21.88;;
43620;SDS011;29213;50.770;7.298;2022-12-18T14:37:17;39.50;;;21.45;;
43620;SDS011;29213;50.770;7.298;2022-12-18T14:39:52;37.97;;;21.38;;
43620;SDS011;29213;50.770;7.298;2022-12-18T14:42:23;36.13;;;21.75;;
43620;SDS011;29213;50.770;7.298;2022-12-18T14:47:58;38.35;;;20.67;;
43620;SDS011;29213;50.770;7.298;2022-12-18T14:50:25;37.95;;;21.55;;
43620;SDS011;29213;50.770;7.298;2022-12-18T14:52:51;40.97;;;23.75;;
43620;SDS011;29213;50.770;7.298;2022-12-18T14:55:17;40.78;;;22.40;;
43620;SDS011;29213;50.770;7.298;2022-12-18T14:57:44;41.55;;;22.75;;
43620;SDS011;29213;50.770;7.298;2022-12-18T15:00:15;39.25;;;22.27;;
43620;SDS011;29213;50.770;7.298;2022-12-18T15:02:50;44.33;;;23.95;;
43620;SDS011;29213;50.770;7.298;2022-12-18T15:05:23;41.83;;;23.33;;
43620;SDS011;29213;50.770;7.298;2022-12-18T15:07:55;40.10;;;23.90;;
43620;SDS011;29213;50.770;7.298;2022-12-18T15:18:32;43.33;;;24.20;;
43620;SDS011;29213;50.770;7.298;2022-12-18T15:20:57;41.10;;;23.40;;
43620;SDS011;29213;50.770;7.298;2022-12-18T15:23:35;42.60;;;24.93;;
43620;SDS011;29213;50.770;7.298;2022-12-18T15:26:11;43.57;;;24.13;;
43620;SDS011;29213;50.770;7.298;2022-12-18T15:28:52;41.37;;;24.17;;
43620;SDS011;29213;50.770;7.298;2022-12-18T15:31:24;42.93;;;25.83;;
43620;SDS011;29213;50.770;7.298;2022-12-18T15:36:20;44.10;;;25.53;;
43620;SDS011;29213;50.770;7.298;2022-12-18T15:38:48;45.47;;;24.47;;
43620;SDS011;29213;50.770;7.298;2022-12-18T15:41:21;41.73;;;24.03;;
43620;SDS011;29213;50.770;7.298;2022-12-18T15:46:58;41.30;;;24.47;;
43620;SDS011;29213;50.770;7.298;2022-12-18T15:49:29;43.23;;;24.83;;
43620;SDS011;29213;50.770;7.298;2022-12-18T15:54:34;49.80;;;27.00;;
43620;SDS011;29213;50.770;7.298;2022-12-18T15:57:18;41.10;;;23.53;;
43620;SDS011;29213;50.770;7.298;2022-12-18T15:59:56;43.00;;;24.50;;
43620;SDS011;29213;50.770;7.298;2022-12-18T16:02:23;50.23;;;30.27;;
43620;SDS011;29213;50.770;7.298;2022-12-18T16:04:49;45.88;;;25.30;;
43620;SDS011;29213;50.770;7.298;2022-12-18T16:07:17;46.75;;;25.73;;
43620;SDS011;29213;50.770;7.298;2022-12-18T16:09:42;45.25;;;24.70;;
43620;SDS011;29213;50.770;7.298;2022-12-18T16:12:11;45.67;;;25.55;;